Terminal Aerodrome Forecast
Issued by NWS Lake Charles, LA

Home | Current Version | Previous Version | Text Only | Print | Product List | Glossary On
Versions: 1 2 3 4 5 6 7 8 9 10 11 12 13 14 15 16 17 18 19 20
779
FTUS44 KLCH 010520
TAFLFT
TAF
KLFT 010520Z 0106/0206 VRB03KT P6SM BKN250
     FM011400 13005KT P6SM SCT025 BKN200
     FM011800 17008KT P6SM VCSH BKN050
     FM020100 VRB03KT P6SM SCT120 BKN250=

USA.gov is the U.S. government's official web portal to all federal, state and local government web resources and services.